Capitol Logistics 2216


KSDF
Louisville International Airport-Standiford Field
Louisville, Kentucky, US
KRFD
Chicago/Rockford International Airport
Rockford, Illinois, US

Activity Log

Date Flight Route Aircraft Duration
01/29/2020 CPX2216 SHB BVT JOT B763 1h 10m
12/02/2019 CPX2216 SHB BVT JOT B763 1h 13m
11/28/2019 CPX2216 SHB BVT JOT B763 1h 07m
11/21/2019 CPX2216 SHB BVT JOT B763 1h 13m

Route Details

Aircraft Information
Primary: Boeing 767-300BDSF
Backup: Boeing 757-200SF
Date Restrictions
Between:Nov 16, 2019
Dec 31, 2019
Route Data
Distance: 287nm
Sched. Duration: 0h 54m
Avg. Duration: 1h 11m (+57m)
Times Flown: 4
Recm'd Route: SHB BVT JOT
Planned Altitude: 30,000ft
Origin Wx: KSDF 311256Z 03006KT 10SM OVC110 08/02 A2996 RMK AO2 SLP143 T00830017
Dest. Wx: KRFD 311254Z 03014KT 10SM BKN019 OVC050 03/M01 A3010 RMK AO2 SLP196 T00331011
Notes: SEASONAL FLIGHT | UPS SURGE OPS CONTRACT

Financial History
Total Freight: 241,896lbs
Average Load: 60,474lbs/flt
Fuel Used: 45,152lbs
Avg. Fuel Used: 11,288lbs/flt
Fuel Expense: $36,573
Avg. Fuel Expense: $9,143
Avg. Fuel Cost: $0.81/lbs
Total Gross Income: $355,587
Pilot Pay: $846
Total Expenses: $38,611
Total Revenue: $279,077
Average Revenue: $88,896.78